sensor_id;sensor_type;location;lat;lon;timestamp;pressure;altitude;pressure_sealevel;temperature;humidity
49529;BME280;35423;37.320;-121.762;2024-01-30T00:02:25;100114.28;;;39.15;11.89
49529;BME280;35423;37.320;-121.762;2024-01-30T00:04:54;100110.35;;;38.56;12.18
49529;BME280;35423;37.320;-121.762;2024-01-30T00:07:29;100115.35;;;38.05;12.44
49529;BME280;35423;37.320;-121.762;2024-01-30T00:09:57;100116.14;;;37.74;12.66
49529;BME280;35423;37.320;-121.762;2024-01-30T00:12:36;100119.00;;;38.30;12.74
49529;BME280;35423;37.320;-121.762;2024-01-30T00:15:01;100120.17;;;38.09;12.68
49529;BME280;35423;37.320;-121.762;2024-01-30T00:17:39;100117.95;;;38.87;12.43
49529;BME280;35423;37.320;-121.762;2024-01-30T00:20:09;100123.03;;;38.90;12.33
49529;BME280;35423;37.320;-121.762;2024-01-30T00:22:34;100121.60;;;39.52;11.80
49529;BME280;35423;37.320;-121.762;2024-01-30T00:25:03;100122.75;;;39.76;11.56
49529;BME280;35423;37.320;-121.762;2024-01-30T00:27:28;100123.93;;;40.05;11.46
49529;BME280;35423;37.320;-121.762;2024-01-30T00:29:54;100124.46;;;39.72;11.41
49529;BME280;35423;37.320;-121.762;2024-01-30T00:32:33;100127.34;;;40.35;11.34
49529;BME280;35423;37.320;-121.762;2024-01-30T00:35:00;100126.99;;;39.94;11.30
49529;BME280;35423;37.320;-121.762;2024-01-30T00:37:37;100127.54;;;40.48;11.23
49529;BME280;35423;37.320;-121.762;2024-01-30T00:40:05;100129.86;;;40.25;11.32
49529;BME280;35423;37.320;-121.762;2024-01-30T00:42:30;100132.36;;;40.28;11.37
49529;BME280;35423;37.320;-121.762;2024-01-30T00:44:58;100138.16;;;39.62;11.40
49529;BME280;35423;37.320;-121.762;2024-01-30T00:47:53;100145.22;;;39.25;11.37
49529;BME280;35423;37.320;-121.762;2024-01-30T00:50:25;100145.78;;;39.30;11.46
49529;BME280;35423;37.320;-121.762;2024-01-30T00:52:50;100153.17;;;39.69;11.59
49529;BME280;35423;37.320;-121.762;2024-01-30T00:55:24;100155.32;;;38.81;11.72
49529;BME280;35423;37.320;-121.762;2024-01-30T00:57:48;100160.12;;;38.78;11.80
49529;BME280;35423;37.320;-121.762;2024-01-30T01:00:16;100161.37;;;38.40;12.05
49529;BME280;35423;37.320;-121.762;2024-01-30T01:02:42;100161.46;;;38.28;12.27
49529;BME280;35423;37.320;-121.762;2024-01-30T01:05:07;100164.74;;;37.92;12.61
49529;BME280;35423;37.320;-121.762;2024-01-30T01:07:42;100168.96;;;37.61;12.87
49529;BME280;35423;37.320;-121.762;2024-01-30T01:10:08;100173.41;;;36.99;13.19
49529;BME280;35423;37.320;-121.762;2024-01-30T01:12:33;100175.59;;;36.63;13.31
49529;BME280;35423;37.320;-121.762;2024-01-30T01:14:59;100184.66;;;35.91;13.62
49529;BME280;35423;37.320;-121.762;2024-01-30T01:17:27;100186.47;;;36.06;13.78
49529;BME280;35423;37.320;-121.762;2024-01-30T01:19:52;100189.61;;;35.65;13.91
49529;BME280;35423;37.320;-121.762;2024-01-30T01:22:31;100191.56;;;35.52;13.90
49529;BME280;35423;37.320;-121.762;2024-01-30T01:25:00;100188.66;;;35.16;14.12
49529;BME280;35423;37.320;-121.762;2024-01-30T01:27:36;100184.30;;;35.26;14.46
49529;BME280;35423;37.320;-121.762;2024-01-30T01:30:02;100187.72;;;34.60;14.80
49529;BME280;35423;37.320;-121.762;2024-01-30T01:32:34;100196.85;;;34.56;14.96
49529;BME280;35423;37.320;-121.762;2024-01-30T01:34:55;100201.05;;;33.98;15.21
49529;BME280;35423;37.320;-121.762;2024-01-30T01:37:21;100203.75;;;33.89;15.40
49529;BME280;35423;37.320;-121.762;2024-01-30T01:39:46;100204.77;;;34.39;15.57
49529;BME280;35423;37.320;-121.762;2024-01-30T01:42:17;100206.86;;;33.95;15.75
49529;BME280;35423;37.320;-121.762;2024-01-30T01:44:42;100210.05;;;33.90;15.87
49529;BME280;35423;37.320;-121.762;2024-01-30T01:47:10;100209.82;;;33.50;16.14
49529;BME280;35423;37.320;-121.762;2024-01-30T01:49:35;100207.88;;;33.40;16.41
49529;BME280;35423;37.320;-121.762;2024-01-30T01:52:03;100203.53;;;33.14;16.62
49529;BME280;35423;37.320;-121.762;2024-01-30T01:54:30;100200.97;;;32.94;16.85
49529;BME280;35423;37.320;-121.762;2024-01-30T01:56:56;100200.91;;;32.32;16.94
49529;BME280;35423;37.320;-121.762;2024-01-30T01:59:24;100202.89;;;32.82;16.90
49529;BME280;35423;37.320;-121.762;2024-01-30T02:01:50;100202.48;;;32.40;17.00
49529;BME280;35423;37.320;-121.762;2024-01-30T02:04:15;100199.76;;;32.23;17.13
49529;BME280;35423;37.320;-121.762;2024-01-30T02:06:40;100198.87;;;32.23;17.15
49529;BME280;35423;37.320;-121.762;2024-01-30T02:09:08;100200.26;;;31.85;17.10
49529;BME280;35423;37.320;-121.762;2024-01-30T02:11:35;100195.85;;;31.89;17.07
49529;BME280;35423;37.320;-121.762;2024-01-30T02:14:03;100192.12;;;31.42;17.03
49529;BME280;35423;37.320;-121.762;2024-01-30T02:16:29;100191.44;;;31.78;16.92
49529;BME280;35423;37.320;-121.762;2024-01-30T02:18:54;100189.37;;;31.62;16.69
49529;BME280;35423;37.320;-121.762;2024-01-30T02:21:26;100188.15;;;30.95;16.63
49529;BME280;35423;37.320;-121.762;2024-01-30T02:23:53;100189.81;;;31.54;16.40
49529;BME280;35423;37.320;-121.762;2024-01-30T02:26:26;100187.96;;;30.77;16.41
49529;BME280;35423;37.320;-121.762;2024-01-30T02:28:51;100191.44;;;31.49;16.21
49529;BME280;35423;37.320;-121.762;2024-01-30T02:31:21;100192.07;;;30.88;16.31
49529;BME280;35423;37.320;-121.762;2024-01-30T02:33:52;100192.40;;;31.19;16.08
49529;BME280;35423;37.320;-121.762;2024-01-30T02:36:20;100187.03;;;30.72;16.05
49529;BME280;35423;37.320;-121.762;2024-01-30T02:38:47;100187.41;;;31.61;15.77
49529;BME280;35423;37.320;-121.762;2024-01-30T02:41:17;100183.88;;;30.70;15.69
49529;BME280;35423;37.320;-121.762;2024-01-30T02:43:45;100184.26;;;31.42;15.58
49529;BME280;35423;37.320;-121.762;2024-01-30T02:46:20;100188.51;;;30.37;15.68
49529;BME280;35423;37.320;-121.762;2024-01-30T02:48:46;100192.07;;;31.44;15.71
49529;BME280;35423;37.320;-121.762;2024-01-30T02:51:20;100196.07;;;30.42;15.90
49529;BME280;35423;37.320;-121.762;2024-01-30T02:53:42;100197.12;;;31.18;15.83
49529;BME280;35423;37.320;-121.762;2024-01-30T02:56:14;100208.14;;;30.41;15.97
49529;BME280;35423;37.320;-121.762;2024-01-30T02:58:44;100213.82;;;30.80;15.85
49529;BME280;35423;37.320;-121.762;2024-01-30T03:01:33;100213.72;;;30.33;15.90
49529;BME280;35423;37.320;-121.762;2024-01-30T03:03:58;100212.06;;;30.59;15.75
49529;BME280;35423;37.320;-121.762;2024-01-30T03:06:27;100219.19;;;30.13;15.78
49529;BME280;35423;37.320;-121.762;2024-01-30T03:08:52;100220.74;;;30.54;15.63
49529;BME280;35423;37.320;-121.762;2024-01-30T03:11:22;100222.88;;;29.84;15.57
49529;BME280;35423;37.320;-121.762;2024-01-30T03:13:51;100222.92;;;30.65;15.48
49529;BME280;35423;37.320;-121.762;2024-01-30T03:16:18;100226.81;;;29.61;15.66
49529;BME280;35423;37.320;-121.762;2024-01-30T03:18:43;100229.89;;;30.29;15.63
49529;BME280;35423;37.320;-121.762;2024-01-30T03:21:10;100231.94;;;29.42;15.82
49529;BME280;35423;37.320;-121.762;2024-01-30T03:23:45;100232.49;;;30.29;15.78
49529;BME280;35423;37.320;-121.762;2024-01-30T03:26:12;100240.00;;;28.80;15.87
49529;BME280;35423;37.320;-121.762;2024-01-30T03:28:47;100249.70;;;30.14;15.74
49529;BME280;35423;37.320;-121.762;2024-01-30T03:31:17;100250.84;;;29.11;15.98
49529;BME280;35423;37.320;-121.762;2024-01-30T03:33:42;100253.46;;;29.86;15.94
49529;BME280;35423;37.320;-121.762;2024-01-30T03:36:16;100257.62;;;29.16;16.07
49529;BME280;35423;37.320;-121.762;2024-01-30T03:38:40;100260.15;;;29.63;15.98
49529;BME280;35423;37.320;-121.762;2024-01-30T03:41:09;100260.00;;;29.11;16.10
49529;BME280;35423;37.320;-121.762;2024-01-30T03:43:43;100263.72;;;29.56;16.22
49529;BME280;35423;37.320;-121.762;2024-01-30T03:46:15;100261.88;;;28.82;16.34
49529;BME280;35423;37.320;-121.762;2024-01-30T03:48:36;100261.22;;;29.44;16.03
49529;BME280;35423;37.320;-121.762;2024-01-30T03:51:20;100256.03;;;28.49;16.18
49529;BME280;35423;37.320;-121.762;2024-01-30T03:53:51;100254.66;;;29.36;16.05
49529;BME280;35423;37.320;-121.762;2024-01-30T03:56:16;100254.29;;;28.88;16.19
49529;BME280;35423;37.320;-121.762;2024-01-30T03:58:41;100253.94;;;28.95;16.28
49529;BME280;35423;37.320;-121.762;2024-01-30T04:01:20;100246.75;;;28.75;16.39
49529;BME280;35423;37.320;-121.762;2024-01-30T04:03:49;100243.93;;;28.62;16.31
49529;BME280;35423;37.320;-121.762;2024-01-30T04:06:16;100235.73;;;27.99;16.37
49529;BME280;35423;37.320;-121.762;2024-01-30T04:08:41;100229.87;;;28.78;16.20
49529;BME280;35423;37.320;-121.762;2024-01-30T04:11:17;100223.13;;;28.16;16.32
49529;BME280;35423;37.320;-121.762;2024-01-30T04:13:37;100218.68;;;29.06;16.20
49529;BME280;35423;37.320;-121.762;2024-01-30T04:16:20;100219.05;;;27.98;16.30
49529;BME280;35423;37.320;-121.762;2024-01-30T04:18:36;100216.78;;;28.07;16.23
49529;BME280;35423;37.320;-121.762;2024-01-30T04:21:18;100208.59;;;28.21;16.02
49529;BME280;35423;37.320;-121.762;2024-01-30T04:23:41;100203.67;;;29.12;15.99
49529;BME280;35423;37.320;-121.762;2024-01-30T04:26:20;100197.55;;;28.44;16.11
49529;BME280;35423;37.320;-121.762;2024-01-30T04:28:48;100190.84;;;28.77;16.04
49529;BME280;35423;37.320;-121.762;2024-01-30T04:33:49;100192.64;;;29.07;16.30
49529;BME280;35423;37.320;-121.762;2024-01-30T04:38:54;100210.62;;;28.43;16.48
49529;BME280;35423;37.320;-121.762;2024-01-30T04:41:23;100215.07;;;28.03;16.53
49529;BME280;35423;37.320;-121.762;2024-01-30T04:43:48;100216.75;;;28.92;16.34
49529;BME280;35423;37.320;-121.762;2024-01-30T04:46:29;100220.83;;;28.17;16.32
49529;BME280;35423;37.320;-121.762;2024-01-30T04:48:53;100224.10;;;28.80;16.45
49529;BME280;35423;37.320;-121.762;2024-01-30T04:51:39;100228.45;;;27.72;16.51
49529;BME280;35423;37.320;-121.762;2024-01-30T04:54:09;100226.98;;;28.30;16.24
49529;BME280;35423;37.320;-121.762;2024-01-30T04:56:35;100233.44;;;27.86;16.22
49529;BME280;35423;37.320;-121.762;2024-01-30T04:59:00;100235.44;;;28.25;15.93
49529;BME280;35423;37.320;-121.762;2024-01-30T05:01:35;100242.14;;;27.80;16.02
49529;BME280;35423;37.320;-121.762;2024-01-30T05:04:02;100245.96;;;28.22;16.06
49529;BME280;35423;37.320;-121.762;2024-01-30T05:06:40;100250.11;;;27.50;16.27
49529;BME280;35423;37.320;-121.762;2024-01-30T05:09:20;100254.73;;;27.74;16.30
49529;BME280;35423;37.320;-121.762;2024-01-30T05:11:53;100255.37;;;27.24;16.20
49529;BME280;35423;37.320;-121.762;2024-01-30T05:14:17;100260.44;;;27.98;16.33
49529;BME280;35423;37.320;-121.762;2024-01-30T05:16:53;100261.62;;;27.14;16.64
49529;BME280;35423;37.320;-121.762;2024-01-30T05:19:18;100268.15;;;27.91;16.56
49529;BME280;35423;37.320;-121.762;2024-01-30T05:21:43;100277.75;;;27.85;16.93
49529;BME280;35423;37.320;-121.762;2024-01-30T05:24:11;100283.17;;;27.71;17.29
49529;BME280;35423;37.320;-121.762;2024-01-30T05:26:42;100289.10;;;26.76;17.51
49529;BME280;35423;37.320;-121.762;2024-01-30T05:29:03;100295.11;;;27.30;17.50
49529;BME280;35423;37.320;-121.762;2024-01-30T05:31:31;100302.22;;;27.21;17.83
49529;BME280;35423;37.320;-121.762;2024-01-30T05:33:56;100302.76;;;27.24;18.04
49529;BME280;35423;37.320;-121.762;2024-01-30T05:36:37;100301.30;;;26.32;18.12
49529;BME280;35423;37.320;-121.762;2024-01-30T05:39:02;100295.50;;;25.73;17.92
49529;BME280;35423;37.320;-121.762;2024-01-30T05:41:31;100286.53;;;26.63;17.74
49529;BME280;35423;37.320;-121.762;2024-01-30T05:44:01;100278.01;;;27.09;17.74
49529;BME280;35423;37.320;-121.762;2024-01-30T05:46:35;100268.61;;;26.89;17.96
49529;BME280;35423;37.320;-121.762;2024-01-30T05:49:02;100256.43;;;26.31;18.17
49529;BME280;35423;37.320;-121.762;2024-01-30T05:51:38;100250.37;;;26.11;18.36
49529;BME280;35423;37.320;-121.762;2024-01-30T05:54:16;100241.75;;;25.97;17.92
49529;BME280;35423;37.320;-121.762;2024-01-30T05:56:48;100241.21;;;26.34;17.60
49529;BME280;35423;37.320;-121.762;2024-01-30T05:59:17;100241.44;;;26.30;17.47
49529;BME280;35423;37.320;-121.762;2024-01-30T06:01:48;100242.77;;;26.66;17.47
49529;BME280;35423;37.320;-121.762;2024-01-30T06:04:16;100245.01;;;26.88;17.52
49529;BME280;35423;37.320;-121.762;2024-01-30T06:06:45;100240.28;;;26.70;17.58
49529;BME280;35423;37.320;-121.762;2024-01-30T06:09:10;100235.78;;;26.13;17.49
49529;BME280;35423;37.320;-121.762;2024-01-30T06:11:41;100230.47;;;26.12;17.79
49529;BME280;35423;37.320;-121.762;2024-01-30T06:14:11;100226.50;;;25.86;17.84
49529;BME280;35423;37.320;-121.762;2024-01-30T06:16:36;100223.34;;;26.84;17.85
49529;BME280;35423;37.320;-121.762;2024-01-30T06:19:04;100225.45;;;26.34;18.16
49529;BME280;35423;37.320;-121.762;2024-01-30T06:21:30;100226.58;;;26.01;18.35
49529;BME280;35423;37.320;-121.762;2024-01-30T06:23:57;100226.41;;;25.83;18.40
49529;BME280;35423;37.320;-121.762;2024-01-30T06:26:23;100219.49;;;24.80;18.77
49529;BME280;35423;37.320;-121.762;2024-01-30T06:28:50;100215.95;;;25.59;18.62
49529;BME280;35423;37.320;-121.762;2024-01-30T06:31:14;100216.59;;;25.06;18.58
49529;BME280;35423;37.320;-121.762;2024-01-30T06:33:40;100226.00;;;25.83;18.36
49529;BME280;35423;37.320;-121.762;2024-01-30T06:36:14;100233.66;;;25.01;18.49
49529;BME280;35423;37.320;-121.762;2024-01-30T06:38:40;100238.86;;;25.82;18.09
49529;BME280;35423;37.320;-121.762;2024-01-30T06:41:20;100242.12;;;25.41;18.21
49529;BME280;35423;37.320;-121.762;2024-01-30T06:43:46;100241.48;;;25.89;18.15
49529;BME280;35423;37.320;-121.762;2024-01-30T06:46:08;100239.97;;;25.48;18.25
49529;BME280;35423;37.320;-121.762;2024-01-30T06:48:35;100237.38;;;25.67;18.39
49529;BME280;35423;37.320;-121.762;2024-01-30T06:51:06;100234.51;;;24.45;18.44
49529;BME280;35423;37.320;-121.762;2024-01-30T06:53:26;100236.14;;;25.48;18.37
49529;BME280;35423;37.320;-121.762;2024-01-30T06:56:04;100238.47;;;25.01;18.47
49529;BME280;35423;37.320;-121.762;2024-01-30T06:58:32;100238.30;;;25.14;18.36
49529;BME280;35423;37.320;-121.762;2024-01-30T07:01:29;100241.36;;;24.78;18.31
49529;BME280;35423;37.320;-121.762;2024-01-30T07:03:54;100242.32;;;24.76;18.03
49529;BME280;35423;37.320;-121.762;2024-01-30T07:06:21;100241.62;;;25.06;18.24
49529;BME280;35423;37.320;-121.762;2024-01-30T07:08:54;100241.84;;;24.97;18.26
49529;BME280;35423;37.320;-121.762;2024-01-30T07:11:27;100237.46;;;24.85;18.43
49529;BME280;35423;37.320;-121.762;2024-01-30T07:13:49;100233.61;;;24.74;18.37
49529;BME280;35423;37.320;-121.762;2024-01-30T07:16:34;100227.90;;;25.06;18.20
49529;BME280;35423;37.320;-121.762;2024-01-30T07:19:07;100223.24;;;24.76;17.97
49529;BME280;35423;37.320;-121.762;2024-01-30T07:21:48;100218.08;;;24.87;17.85
49529;BME280;35423;37.320;-121.762;2024-01-30T07:24:28;100214.57;;;24.83;17.71
49529;BME280;35423;37.320;-121.762;2024-01-30T07:26:55;100210.75;;;24.93;17.66
49529;BME280;35423;37.320;-121.762;2024-01-30T07:29:20;100208.31;;;24.97;17.60
49529;BME280;35423;37.320;-121.762;2024-01-30T07:31:52;100207.53;;;24.76;17.52
49529;BME280;35423;37.320;-121.762;2024-01-30T07:34:26;100207.06;;;25.04;17.60
49529;BME280;35423;37.320;-121.762;2024-01-30T07:36:54;100208.65;;;25.43;17.55
49529;BME280;35423;37.320;-121.762;2024-01-30T07:39:50;100211.92;;;25.16;17.44
49529;BME280;35423;37.320;-121.762;2024-01-30T07:42:18;100217.27;;;24.71;17.51
49529;BME280;35423;37.320;-121.762;2024-01-30T07:44:54;100219.67;;;24.74;17.65
49529;BME280;35423;37.320;-121.762;2024-01-30T07:47:30;100217.20;;;25.21;17.59
49529;BME280;35423;37.320;-121.762;2024-01-30T07:50:13;100213.70;;;25.10;17.56
49529;BME280;35423;37.320;-121.762;2024-01-30T07:52:41;100215.66;;;24.82;17.57
49529;BME280;35423;37.320;-121.762;2024-01-30T07:55:10;100218.02;;;24.75;17.63
49529;BME280;35423;37.320;-121.762;2024-01-30T07:57:40;100212.52;;;24.74;17.70
49529;BME280;35423;37.320;-121.762;2024-01-30T08:00:15;100202.15;;;24.01;17.84
49529;BME280;35423;37.320;-121.762;2024-01-30T08:02:39;100198.06;;;25.22;17.98
49529;BME280;35423;37.320;-121.762;2024-01-30T08:05:09;100193.13;;;25.17;18.19
49529;BME280;35423;37.320;-121.762;2024-01-30T08:07:39;100193.22;;;24.39;18.50
49529;BME280;35423;37.320;-121.762;2024-01-30T08:10:06;100193.00;;;25.01;18.58
49529;BME280;35423;37.320;-121.762;2024-01-30T08:12:32;100193.26;;;24.13;18.76
49529;BME280;35423;37.320;-121.762;2024-01-30T08:15:00;100192.36;;;24.28;18.61
49529;BME280;35423;37.320;-121.762;2024-01-30T08:17:31;100197.86;;;24.34;18.67
49529;BME280;35423;37.320;-121.762;2024-01-30T08:20:12;100198.00;;;24.19;18.56
49529;BME280;35423;37.320;-121.762;2024-01-30T08:22:42;100198.25;;;25.17;18.41
49529;BME280;35423;37.320;-121.762;2024-01-30T08:25:08;100196.99;;;24.69;18.50
49529;BME280;35423;37.320;-121.762;2024-01-30T08:27:36;100191.90;;;24.67;18.71
49529;BME280;35423;37.320;-121.762;2024-01-30T08:30:02;100189.89;;;24.21;18.84
49529;BME280;35423;37.320;-121.762;2024-01-30T08:32:31;100191.71;;;23.71;18.92
49529;BME280;35423;37.320;-121.762;2024-01-30T08:34:56;100189.86;;;23.97;18.77
49529;BME280;35423;37.320;-121.762;2024-01-30T08:37:26;100185.87;;;24.45;18.85
49529;BME280;35423;37.320;-121.762;2024-01-30T08:39:50;100184.65;;;24.13;19.08
49529;BME280;35423;37.320;-121.762;2024-01-30T08:42:16;100182.32;;;23.04;19.14
49529;BME280;35423;37.320;-121.762;2024-01-30T08:44:43;100174.75;;;23.86;19.01
49529;BME280;35423;37.320;-121.762;2024-01-30T08:47:43;100172.75;;;23.35;19.06
49529;BME280;35423;37.320;-121.762;2024-01-30T08:50:25;100170.36;;;23.65;19.01
49529;BME280;35423;37.320;-121.762;2024-01-30T08:52:57;100168.46;;;23.45;18.96
49529;BME280;35423;37.320;-121.762;2024-01-30T08:55:29;100167.58;;;23.70;19.19
49529;BME280;35423;37.320;-121.762;2024-01-30T08:57:54;100163.17;;;23.11;19.25
49529;BME280;35423;37.320;-121.762;2024-01-30T09:00:20;100161.69;;;23.74;19.33
49529;BME280;35423;37.320;-121.762;2024-01-30T09:02:59;100162.71;;;22.88;19.30
49529;BME280;35423;37.320;-121.762;2024-01-30T09:05:20;100162.59;;;23.45;19.22
49529;BME280;35423;37.320;-121.762;2024-01-30T09:07:58;100164.45;;;22.95;19.30
49529;BME280;35423;37.320;-121.762;2024-01-30T09:10:19;100162.57;;;23.64;19.36
49529;BME280;35423;37.320;-121.762;2024-01-30T09:12:59;100161.12;;;22.64;19.44
49529;BME280;35423;37.320;-121.762;2024-01-30T09:15:33;100156.33;;;22.91;19.31
49529;BME280;35423;37.320;-121.762;2024-01-30T09:18:14;100150.06;;;22.97;19.01
49529;BME280;35423;37.320;-121.762;2024-01-30T09:20:39;100151.88;;;23.07;18.84
49529;BME280;35423;37.320;-121.762;2024-01-30T09:23:06;100155.55;;;23.30;18.90
49529;BME280;35423;37.320;-121.762;2024-01-30T09:25:34;100155.07;;;23.30;19.01
49529;BME280;35423;37.320;-121.762;2024-01-30T09:28:09;100152.15;;;22.85;19.01
49529;BME280;35423;37.320;-121.762;2024-01-30T09:30:36;100150.47;;;23.11;18.97
49529;BME280;35423;37.320;-121.762;2024-01-30T09:33:15;100150.06;;;23.14;18.89
49529;BME280;35423;37.320;-121.762;2024-01-30T09:35:37;100151.39;;;22.84;18.91
49529;BME280;35423;37.320;-121.762;2024-01-30T09:38:02;100156.22;;;23.14;19.04
49529;BME280;35423;37.320;-121.762;2024-01-30T09:40:32;100162.29;;;23.34;19.12
49529;BME280;35423;37.320;-121.762;2024-01-30T09:43:00;100163.73;;;23.07;19.15
49529;BME280;35423;37.320;-121.762;2024-01-30T09:45:31;100168.78;;;23.25;19.12
49529;BME280;35423;37.320;-121.762;2024-01-30T09:47:53;100178.25;;;23.34;19.29
49529;BME280;35423;37.320;-121.762;2024-01-30T09:50:28;100181.61;;;23.26;19.37
49529;BME280;35423;37.320;-121.762;2024-01-30T09:52:59;100186.12;;;23.23;19.41
49529;BME280;35423;37.320;-121.762;2024-01-30T09:55:38;100186.02;;;23.12;19.57
49529;BME280;35423;37.320;-121.762;2024-01-30T09:58:20;100182.91;;;23.11;19.56
49529;BME280;35423;37.320;-121.762;2024-01-30T10:00:55;100183.06;;;23.05;19.59
49529;BME280;35423;37.320;-121.762;2024-01-30T10:03:20;100185.68;;;23.29;19.64
49529;BME280;35423;37.320;-121.762;2024-01-30T10:05:54;100185.62;;;22.71;19.79
49529;BME280;35423;37.320;-121.762;2024-01-30T10:08:30;100191.74;;;22.94;19.92
49529;BME280;35423;37.320;-121.762;2024-01-30T10:11:02;100195.33;;;22.66;20.00
49529;BME280;35423;37.320;-121.762;2024-01-30T10:13:30;100197.24;;;22.78;20.19
49529;BME280;35423;37.320;-121.762;2024-01-30T10:16:18;100192.18;;;22.86;20.51
49529;BME280;35423;37.320;-121.762;2024-01-30T10:18:55;100190.60;;;22.37;20.62
49529;BME280;35423;37.320;-121.762;2024-01-30T10:21:22;100196.23;;;22.64;20.59
49529;BME280;35423;37.320;-121.762;2024-01-30T10:23:53;100207.62;;;22.65;20.60
49529;BME280;35423;37.320;-121.762;2024-01-30T10:26:46;100210.09;;;22.67;20.71
49529;BME280;35423;37.320;-121.762;2024-01-30T10:29:12;100206.96;;;22.47;20.64
49529;BME280;35423;37.320;-121.762;2024-01-30T10:31:59;100209.06;;;22.93;20.64
49529;BME280;35423;37.320;-121.762;2024-01-30T10:34:17;100212.44;;;22.65;20.68
49529;BME280;35423;37.320;-121.762;2024-01-30T10:36:54;100207.85;;;22.88;20.71
49529;BME280;35423;37.320;-121.762;2024-01-30T10:39:22;100203.27;;;22.36;20.76
49529;BME280;35423;37.320;-121.762;2024-01-30T10:41:58;100199.31;;;22.35;20.83
49529;BME280;35423;37.320;-121.762;2024-01-30T10:44:27;100198.73;;;22.40;20.83
49529;BME280;35423;37.320;-121.762;2024-01-30T10:46:59;100198.35;;;22.44;20.90
49529;BME280;35423;37.320;-121.762;2024-01-30T10:49:19;100194.62;;;22.87;20.99
49529;BME280;35423;37.320;-121.762;2024-01-30T10:51:52;100192.00;;;22.44;21.32
49529;BME280;35423;37.320;-121.762;2024-01-30T10:54:28;100193.99;;;22.38;21.33
49529;BME280;35423;37.320;-121.762;2024-01-30T10:56:54;100206.69;;;22.58;20.83
49529;BME280;35423;37.320;-121.762;2024-01-30T10:59:35;100214.42;;;23.00;20.89
49529;BME280;35423;37.320;-121.762;2024-01-30T11:02:11;100215.52;;;22.38;21.00
49529;BME280;35423;37.320;-121.762;2024-01-30T11:04:39;100217.34;;;22.75;21.09
49529;BME280;35423;37.320;-121.762;2024-01-30T11:09:53;100207.51;;;22.66;21.10
49529;BME280;35423;37.320;-121.762;2024-01-30T11:12:14;100202.32;;;23.24;21.17
49529;BME280;35423;37.320;-121.762;2024-01-30T11:14:42;100193.38;;;22.71;21.59
49529;BME280;35423;37.320;-121.762;2024-01-30T11:17:29;100189.59;;;22.09;21.72
49529;BME280;35423;37.320;-121.762;2024-01-30T11:19:54;100183.94;;;22.06;21.59
49529;BME280;35423;37.320;-121.762;2024-01-30T11:22:32;100182.93;;;22.29;21.46
49529;BME280;35423;37.320;-121.762;2024-01-30T11:25:06;100185.54;;;22.40;21.39
49529;BME280;35423;37.320;-121.762;2024-01-30T11:27:45;100190.53;;;22.47;21.50
49529;BME280;35423;37.320;-121.762;2024-01-30T11:30:25;100195.80;;;22.20;21.66
49529;BME280;35423;37.320;-121.762;2024-01-30T11:33:00;100198.12;;;22.59;21.96
49529;BME280;35423;37.320;-121.762;2024-01-30T11:35:19;100201.13;;;22.53;22.17
49529;BME280;35423;37.320;-121.762;2024-01-30T11:37:52;100204.49;;;22.16;22.55
49529;BME280;35423;37.320;-121.762;2024-01-30T11:40:40;100211.40;;;21.59;22.64
49529;BME280;35423;37.320;-121.762;2024-01-30T11:43:08;100222.12;;;21.87;22.60
49529;BME280;35423;37.320;-121.762;2024-01-30T11:45:41;100228.13;;;21.84;22.69
49529;BME280;35423;37.320;-121.762;2024-01-30T11:48:09;100224.34;;;21.56;22.71
49529;BME280;35423;37.320;-121.762;2024-01-30T11:50:51;100214.75;;;21.97;22.73
49529;BME280;35423;37.320;-121.762;2024-01-30T11:53:43;100218.51;;;21.69;22.78
49529;BME280;35423;37.320;-121.762;2024-01-30T11:56:15;100222.08;;;21.51;22.76
49529;BME280;35423;37.320;-121.762;2024-01-30T11:58:48;100222.26;;;21.61;22.73
49529;BME280;35423;37.320;-121.762;2024-01-30T12:03:40;100233.65;;;21.67;22.73
49529;BME280;35423;37.320;-121.762;2024-01-30T12:06:10;100242.70;;;21.17;22.74
49529;BME280;35423;37.320;-121.762;2024-01-30T12:08:40;100248.88;;;21.63;22.79
49529;BME280;35423;37.320;-121.762;2024-01-30T12:11:48;100247.79;;;21.51;22.94
49529;BME280;35423;37.320;-121.762;2024-01-30T12:14:12;100249.10;;;21.34;23.02
49529;BME280;35423;37.320;-121.762;2024-01-30T12:16:42;100248.98;;;21.29;23.11
49529;BME280;35423;37.320;-121.762;2024-01-30T12:19:11;100246.63;;;21.25;23.05
49529;BME280;35423;37.320;-121.762;2024-01-30T12:21:44;100240.18;;;21.75;23.00
49529;BME280;35423;37.320;-121.762;2024-01-30T12:24:13;100236.85;;;21.16;23.10
49529;BME280;35423;37.320;-121.762;2024-01-30T12:26:42;100236.64;;;21.15;23.11
49529;BME280;35423;37.320;-121.762;2024-01-30T12:29:11;100237.46;;;21.17;23.03
49529;BME280;35423;37.320;-121.762;2024-01-30T12:31:39;100231.38;;;21.46;23.04
49529;BME280;35423;37.320;-121.762;2024-01-30T12:34:06;100218.28;;;21.14;23.18
49529;BME280;35423;37.320;-121.762;2024-01-30T12:36:44;100200.82;;;21.01;23.33
49529;BME280;35423;37.320;-121.762;2024-01-30T12:39:25;100197.56;;;21.14;23.35
49529;BME280;35423;37.320;-121.762;2024-01-30T12:41:54;100198.12;;;20.83;23.35
49529;BME280;35423;37.320;-121.762;2024-01-30T12:44:23;100195.43;;;21.03;23.39
49529;BME280;35423;37.320;-121.762;2024-01-30T12:46:48;100183.46;;;20.83;23.35
49529;BME280;35423;37.320;-121.762;2024-01-30T12:49:13;100177.26;;;21.47;23.62